createdAt,value
2019-04-27T00:00:45.850Z,6.70
2019-04-27T00:03:23.425Z,6.60
2019-04-27T00:06:05.335Z,6.60
2019-04-27T00:08:38.789Z,6.60
2019-04-27T00:11:23.898Z,6.60
2019-04-27T00:13:53.607Z,6.60
2019-04-27T00:16:33.828Z,6.60
2019-04-27T00:19:10.193Z,6.60
2019-04-27T00:21:43.202Z,6.60
2019-04-27T00:24:13.485Z,6.60
2019-04-27T00:26:43.361Z,6.60
2019-04-27T00:29:13.706Z,6.60
2019-04-27T00:31:43.497Z,6.60
2019-04-27T00:34:13.353Z,6.50
2019-04-27T00:36:59.539Z,6.60
2019-04-27T00:39:33.084Z,6.50
2019-04-27T00:42:03.202Z,6.50
2019-04-27T00:44:33.778Z,6.50
2019-04-27T00:47:03.632Z,6.50
2019-04-27T00:49:32.949Z,6.50
2019-04-27T00:52:03.636Z,6.50
2019-04-27T00:54:33.872Z,6.50
2019-04-27T00:57:20.602Z,6.50
2019-04-27T00:59:53.609Z,6.40
2019-04-27T01:02:29.962Z,6.40
2019-04-27T01:04:58.566Z,6.40
2019-04-27T01:07:27.241Z,6.30
2019-04-27T01:09:55.943Z,6.30
2019-04-27T01:12:24.809Z,6.30
2019-04-27T01:14:53.609Z,6.30
2019-04-27T01:17:22.421Z,6.40
2019-04-27T01:19:51.597Z,6.50
2019-04-27T01:22:20.266Z,6.60
2019-04-27T01:24:49.261Z,6.70
2019-04-27T01:27:19.842Z,6.80
2019-04-27T01:29:49.957Z,6.80
2019-04-27T01:32:20.753Z,6.80
2019-04-27T01:34:49.464Z,6.70
2019-04-27T01:37:20.906Z,6.70
2019-04-27T01:39:50.337Z,6.70
2019-04-27T01:42:19.466Z,6.60
2019-04-27T01:44:49.591Z,6.60
2019-04-27T01:47:18.780Z,6.60
2019-04-27T01:49:49.419Z,6.50
2019-04-27T01:52:19.415Z,6.50
2019-04-27T01:54:49.539Z,6.50
2019-04-27T01:57:19.397Z,6.40
2019-04-27T01:59:48.935Z,6.50
2019-04-27T02:02:34.809Z,6.40
2019-04-27T02:05:22.806Z,6.40
2019-04-27T02:07:51.451Z,6.40
2019-04-27T02:10:20.454Z,6.40
2019-04-27T02:12:49.182Z,6.40
2019-04-27T02:15:19.145Z,6.40
2019-04-27T02:17:50.692Z,6.40
2019-04-27T02:20:19.746Z,6.40
2019-04-27T03:21:56.339Z,6.70
2019-04-27T03:24:42.619Z,6.70
2019-04-27T03:27:12.761Z,6.70
2019-04-27T03:29:41.910Z,6.80
2019-04-27T03:32:12.590Z,6.80
2019-04-27T03:34:42.206Z,6.80
2019-04-27T03:37:11.359Z,6.80
2019-04-27T03:39:40.043Z,6.90
2019-04-27T03:42:10.369Z,6.80
2019-04-27T03:44:39.770Z,6.80
2019-04-27T03:47:09.984Z,6.80
2019-04-27T03:49:41.529Z,6.80
2019-04-27T03:52:23.149Z,6.90
2019-04-27T03:55:10.459Z,7.00
2019-04-27T03:57:43.319Z,7.00
2019-04-27T04:00:20.096Z,7.10
2019-04-27T04:02:50.255Z,7.20
2019-04-27T04:05:19.800Z,7.20
2019-04-27T04:07:50.416Z,7.20
2019-04-27T04:10:19.906Z,7.20
2019-04-27T04:13:02.383Z,7.20
2019-04-27T04:15:35.703Z,7.30
2019-04-27T04:18:04.374Z,7.30
2019-04-27T04:20:33.078Z,7.30
2019-04-27T04:23:03.364Z,7.30
2019-04-27T04:25:33.091Z,7.40
2019-04-27T04:28:02.148Z,7.50
2019-04-27T04:30:30.840Z,7.70
2019-04-27T04:33:00.061Z,7.80
2019-04-27T04:35:32.613Z,8.00
2019-04-27T04:38:00.218Z,8.10
2019-04-27T04:40:36.707Z,8.10
2019-04-27T04:43:10.774Z,8.20
2019-04-27T04:45:44.292Z,8.00
2019-04-27T04:48:14.619Z,8.00
2019-04-27T04:50:43.394Z,7.90
2019-04-27T04:53:12.799Z,7.80
2019-04-27T04:55:41.582Z,7.80
2019-04-27T04:58:10.263Z,7.80
2019-04-27T05:00:40.160Z,7.70
2019-04-27T05:03:09.518Z,7.60
2019-04-27T05:05:41.113Z,7.60
2019-04-27T05:08:09.121Z,7.60
2019-04-27T05:10:39.460Z,7.60
2019-04-27T05:13:09.333Z,7.70
2019-04-27T05:15:39.492Z,7.70
2019-04-27T05:18:09.104Z,7.70
2019-04-27T05:20:48.756Z,7.60
2019-04-27T05:23:18.642Z,7.70
2019-04-27T05:25:49.040Z,7.90
2019-04-27T05:28:18.709Z,7.90
2019-04-27T05:30:48.905Z,8.00
2019-04-27T05:33:18.716Z,7.90
2019-04-27T05:35:49.159Z,8.00
2019-04-27T05:38:19.292Z,8.10
2019-04-27T05:40:49.978Z,8.10
2019-04-27T05:43:20.181Z,8.20
2019-04-27T05:46:21.966Z,8.10
2019-04-27T05:48:50.665Z,8.30
2019-04-27T05:51:19.774Z,8.30
2019-04-27T05:53:49.528Z,8.40
2019-04-27T05:56:19.321Z,8.40
2019-04-27T05:58:49.113Z,8.40
2019-04-27T06:01:19.645Z,8.50
2019-04-27T06:03:49.812Z,8.60
2019-04-27T06:06:19.735Z,8.60
2019-04-27T06:08:49.500Z,8.60
2019-04-27T06:11:19.624Z,8.70
2019-04-27T06:13:49.236Z,8.80
2019-04-27T06:16:19.474Z,8.90
2019-04-27T06:18:49.345Z,9.00
2019-04-27T06:21:19.554Z,9.00
2019-04-27T06:23:48.811Z,9.10
2019-04-27T06:26:17.574Z,9.20
2019-04-27T06:28:46.264Z,9.20
2019-04-27T06:31:14.945Z,9.30
2019-04-27T06:33:43.645Z,9.30
2019-04-27T06:36:12.253Z,9.30
2019-04-27T06:38:40.957Z,9.40
2019-04-27T06:41:10.179Z,9.40
2019-04-27T06:43:40.614Z,9.50
2019-04-27T06:46:09.463Z,9.50
2019-04-27T06:48:39.466Z,9.50
2019-04-27T06:51:09.706Z,9.50
2019-04-27T06:53:39.426Z,9.60
2019-04-27T06:56:09.028Z,9.60
2019-04-27T06:58:40.552Z,9.60
2019-04-27T07:01:09.449Z,9.60
2019-04-27T07:03:39.516Z,9.60
2019-04-27T07:06:08.840Z,9.60
2019-04-27T07:08:39.901Z,9.60
2019-04-27T07:11:08.933Z,9.60
2019-04-27T07:13:39.097Z,9.60
2019-04-27T07:16:09.520Z,9.60
2019-04-27T07:18:39.697Z,9.60
2019-04-27T07:21:17.008Z,9.60
2019-04-27T07:23:40.717Z,9.60
2019-04-27T07:26:09.680Z,9.60
2019-04-27T07:28:39.267Z,9.60
2019-04-27T07:31:09.642Z,9.70
2019-04-27T07:33:39.593Z,9.60
2019-04-27T07:36:08.945Z,9.60
2019-04-27T07:38:39.391Z,9.60
2019-04-27T07:41:09.578Z,9.50
2019-04-27T07:43:54.741Z,9.50
2019-04-27T07:46:23.765Z,9.50
2019-04-27T07:48:52.370Z,9.40
2019-04-27T07:51:31.595Z,9.50
2019-04-27T07:53:51.907Z,9.40
2019-04-27T07:56:20.581Z,9.40
2019-04-27T07:58:49.496Z,9.40
2019-04-27T08:01:19.284Z,9.40
2019-04-27T08:03:49.057Z,9.50
2019-04-27T08:06:18.950Z,9.50
2019-04-27T08:08:49.235Z,9.50
2019-04-27T08:11:19.267Z,9.50
2019-04-27T08:13:49.014Z,9.50
2019-04-27T08:16:18.366Z,9.40
2019-04-27T08:18:49.631Z,9.30
2019-04-27T08:21:18.979Z,9.30
2019-04-27T08:23:49.026Z,9.30
2019-04-27T08:26:19.451Z,9.30
2019-04-27T08:28:52.526Z,9.40
2019-04-27T08:31:22.847Z,9.40
2019-04-27T08:33:51.518Z,9.50
2019-04-27T08:36:20.340Z,9.60
2019-04-27T08:38:49.058Z,9.60
2019-04-27T08:41:21.033Z,9.80
2019-04-27T08:43:48.843Z,9.80
2019-04-27T08:46:18.668Z,9.70
2019-04-27T08:48:49.016Z,9.60
2019-04-27T08:51:19.669Z,9.60
2019-04-27T08:53:50.076Z,9.60
2019-04-27T08:56:19.454Z,9.70
2019-04-27T08:58:49.700Z,9.70
2019-04-27T09:01:20.768Z,9.80
2019-04-27T09:03:49.615Z,9.80
2019-04-27T09:06:19.007Z,9.70
2019-04-27T09:08:49.761Z,9.70
2019-04-27T09:11:20.667Z,9.70
2019-04-27T09:13:54.026Z,9.70
2019-04-27T09:16:24.350Z,9.70
2019-04-27T09:18:54.599Z,9.80
2019-04-27T09:21:23.331Z,9.80
2019-04-27T09:23:52.010Z,9.90
2019-04-27T09:26:20.686Z,10.00
2019-04-27T09:28:49.542Z,10.00
2019-04-27T09:31:19.636Z,10.00
2019-04-27T09:33:48.364Z,9.90
2019-04-27T09:36:17.141Z,10.00
2019-04-27T09:38:46.536Z,10.10
2019-04-27T09:41:16.953Z,10.20
2019-04-27T09:43:46.591Z,10.20
2019-04-27T09:46:15.781Z,10.30
2019-04-27T09:48:46.478Z,10.40
2019-04-27T09:51:16.263Z,10.50
2019-04-27T09:53:45.843Z,10.60
2019-04-27T09:56:16.385Z,10.70
2019-04-27T09:58:47.012Z,10.80
2019-04-27T10:01:16.422Z,10.70
2019-04-27T10:03:46.441Z,10.70
2019-04-27T10:06:16.304Z,10.60
2019-04-27T10:08:45.046Z,10.60
2019-04-27T10:11:13.658Z,10.70
2019-04-27T10:13:42.347Z,10.80
2019-04-27T10:16:11.002Z,11.10
2019-04-27T10:18:39.703Z,11.30
2019-04-27T10:21:08.355Z,11.50
2019-04-27T10:23:38.464Z,11.50
2019-04-27T10:26:07.565Z,11.60
2019-04-27T10:28:37.265Z,11.50
2019-04-27T10:31:07.064Z,11.30
2019-04-27T10:33:35.980Z,11.30
2019-04-27T10:36:06.349Z,11.30
2019-04-27T10:38:35.995Z,11.40
2019-04-27T10:41:05.711Z,11.40
2019-04-27T10:43:35.111Z,11.40
2019-04-27T10:46:03.791Z,11.40
2019-04-27T10:48:32.836Z,11.50
2019-04-27T10:51:01.554Z,11.50
2019-04-27T10:53:30.237Z,11.50
2019-04-27T10:55:58.948Z,11.50
2019-04-27T10:58:27.736Z,11.30
2019-04-27T11:00:58.465Z,11.20
2019-04-27T11:03:46.188Z,11.20
2019-04-27T11:06:22.562Z,11.20
2019-04-27T11:08:51.582Z,11.30
2019-04-27T11:11:20.267Z,11.50
2019-04-27T11:13:48.945Z,11.80
2019-04-27T11:16:17.745Z,12.00
2019-04-27T11:18:47.098Z,12.30
2019-04-27T11:21:15.883Z,12.60
2019-04-27T11:23:45.958Z,12.80
2019-04-27T11:26:16.051Z,12.90
2019-04-27T11:28:46.326Z,12.70
2019-04-27T11:31:16.994Z,12.80
2019-04-27T11:33:46.446Z,12.70
2019-04-27T11:36:22.878Z,12.60
2019-04-27T11:38:56.556Z,12.60
2019-04-27T11:41:26.226Z,12.70
2019-04-27T11:43:56.550Z,12.70
2019-04-27T11:46:26.715Z,12.80
2019-04-27T11:48:58.040Z,12.80
2019-04-27T11:51:26.673Z,12.70
2019-04-27T11:53:55.476Z,12.60
2019-04-27T11:56:24.160Z,12.50
2019-04-27T11:58:52.938Z,12.40
2019-04-27T12:01:21.694Z,12.40
2019-04-27T12:03:50.369Z,12.40
2019-04-27T12:06:19.029Z,12.40
2019-04-27T12:08:47.719Z,12.40
2019-04-27T12:11:16.399Z,12.40
2019-04-27T12:13:46.116Z,12.30
2019-04-27T12:16:15.622Z,12.20
2019-04-27T12:18:48.888Z,12.10
2019-04-27T12:21:16.245Z,12.10
2019-04-27T12:23:47.065Z,12.20
2019-04-27T12:26:17.550Z,12.40
2019-04-27T12:28:48.183Z,12.50
2019-04-27T12:31:27.525Z,12.80
2019-04-27T12:33:56.182Z,13.10
2019-04-27T12:36:25.820Z,13.30
2019-04-27T12:38:56.579Z,13.20
2019-04-27T12:41:26.182Z,13.10
2019-04-27T12:43:56.095Z,12.90
2019-04-27T12:46:25.197Z,12.90
2019-04-27T12:48:55.311Z,12.80
2019-04-27T12:51:24.473Z,12.80
2019-04-27T12:54:05.872Z,12.80
2019-04-27T12:56:38.550Z,12.80
2019-04-27T12:59:11.904Z,12.80
2019-04-27T13:01:42.893Z,13.00
2019-04-27T13:04:13.619Z,13.10
2019-04-27T13:06:46.888Z,13.00
2019-04-27T13:09:15.455Z,13.10
2019-04-27T13:11:46.021Z,13.20
2019-04-27T13:14:16.632Z,13.10
2019-04-27T13:16:45.731Z,13.10
2019-04-27T13:19:16.659Z,13.00
2019-04-27T13:21:46.945Z,13.40
2019-04-27T13:24:15.810Z,13.60
2019-04-27T13:26:45.674Z,13.80
2019-04-27T13:29:16.510Z,13.90
2019-04-27T13:31:45.068Z,14.10
2019-04-27T13:34:13.751Z,14.60
2019-04-27T13:36:42.457Z,15.30
2019-04-27T13:39:11.251Z,15.90
2019-04-27T13:41:43.415Z,16.10
2019-04-27T13:44:12.467Z,16.30
2019-04-27T13:46:48.882Z,16.10
2019-04-27T13:49:37.070Z,15.60
2019-04-27T13:52:07.411Z,15.20
2019-04-27T13:54:36.091Z,14.90
2019-04-27T13:57:04.828Z,14.60
2019-04-27T13:59:33.781Z,14.50
2019-04-27T14:02:02.531Z,14.30
2019-04-27T14:04:31.529Z,14.20
2019-04-27T14:07:00.239Z,14.10
2019-04-27T14:09:30.689Z,14.10
2019-04-27T14:12:01.162Z,14.20
2019-04-27T14:14:29.849Z,14.50
2019-04-27T14:16:58.929Z,14.60
2019-04-27T14:19:28.262Z,14.50
2019-04-27T14:21:58.973Z,14.30
2019-04-27T14:24:42.791Z,14.00
2019-04-27T14:27:11.577Z,13.50
2019-04-27T14:29:40.351Z,13.00
2019-04-27T14:32:09.759Z,12.70
2019-04-27T14:34:38.453Z,12.40
2019-04-27T14:37:08.669Z,12.20
2019-04-27T14:39:38.983Z,12.10
2019-04-27T14:42:08.351Z,12.20
2019-04-27T14:44:38.830Z,12.60
2019-04-27T14:47:08.196Z,12.80
2019-04-27T14:49:36.872Z,13.10
2019-04-27T14:52:05.552Z,13.20
2019-04-27T14:54:47.375Z,13.10
2019-04-27T14:57:04.726Z,12.90
2019-04-27T14:59:33.714Z,12.90
2019-04-27T15:02:02.517Z,13.00
2019-04-27T15:04:31.771Z,12.90
2019-04-27T15:07:01.572Z,12.90
2019-04-27T15:09:30.726Z,12.70
2019-04-27T15:11:59.410Z,12.50
2019-04-27T15:14:28.087Z,12.50
2019-04-27T15:16:56.798Z,12.30
2019-04-27T15:19:27.123Z,12.30
2019-04-27T15:21:58.652Z,12.10
2019-04-27T15:24:26.651Z,12.00
2019-04-27T15:27:00.724Z,11.80
2019-04-27T15:29:27.498Z,11.70
2019-04-27T15:32:01.334Z,11.60
2019-04-27T15:34:35.509Z,10.70
2019-04-27T15:37:11.083Z,10.20
2019-04-27T15:39:48.524Z,9.70
2019-04-27T15:42:31.625Z,9.50
2019-04-27T15:45:00.306Z,9.50
2019-04-27T15:47:28.909Z,9.60
2019-04-27T15:49:59.000Z,9.90
2019-04-27T15:52:30.166Z,10.20
2019-04-27T15:54:58.211Z,10.40
2019-04-27T15:57:27.939Z,10.30
2019-04-27T15:59:58.377Z,10.20
2019-04-27T16:02:28.781Z,10.10
2019-04-27T16:04:58.298Z,9.90
2019-04-27T16:07:32.021Z,9.80
2019-04-27T16:10:02.647Z,9.80
2019-04-27T16:12:29.714Z,9.70
2019-04-27T16:14:58.654Z,9.50
2019-04-27T16:17:29.401Z,9.40
2019-04-27T16:19:58.129Z,9.30
2019-04-27T16:22:27.692Z,9.20
2019-04-27T16:24:58.002Z,9.10
2019-04-27T16:27:31.441Z,9.10
2019-04-27T16:29:57.873Z,9.00
2019-04-27T16:32:27.525Z,9.00
2019-04-27T16:34:56.245Z,8.90
2019-04-27T16:37:35.610Z,8.90
2019-04-27T16:40:08.398Z,8.80
2019-04-27T16:42:38.334Z,8.90
2019-04-27T16:45:08.620Z,8.90
2019-04-27T16:47:38.371Z,8.80
2019-04-27T16:50:08.319Z,8.80
2019-04-27T16:52:38.966Z,8.80
2019-04-27T16:55:08.630Z,8.70
2019-04-27T16:57:39.982Z,8.80
2019-04-27T17:00:10.938Z,8.80
2019-04-27T17:02:40.218Z,8.80
2019-04-27T17:05:09.379Z,8.70
2019-04-27T17:07:41.713Z,8.80
2019-04-27T17:10:09.402Z,8.80
2019-04-27T17:12:43.299Z,8.90
2019-04-27T17:15:19.613Z,8.90
2019-04-27T17:17:55.706Z,8.90
2019-04-27T17:20:24.425Z,9.00
2019-04-27T17:22:53.471Z,9.10
2019-04-27T17:25:23.427Z,9.10
2019-04-27T17:27:57.761Z,9.10
2019-04-27T17:30:24.546Z,9.10
2019-04-27T17:32:54.866Z,9.20
2019-04-27T17:35:23.563Z,9.20
2019-04-27T17:37:54.351Z,9.20
2019-04-27T17:40:22.634Z,9.10
2019-04-27T17:42:51.274Z,9.10
2019-04-27T17:45:21.700Z,9.10
2019-04-27T17:47:50.421Z,9.10
2019-04-27T17:50:25.057Z,9.10
2019-04-27T17:52:55.076Z,9.10
2019-04-27T17:55:24.434Z,9.10
2019-04-27T17:57:50.509Z,9.10
2019-04-27T18:00:20.086Z,9.10
2019-04-27T18:02:48.767Z,9.10
2019-04-27T18:05:17.951Z,9.00
2019-04-27T18:07:48.549Z,9.00
2019-04-27T18:10:21.138Z,8.90
2019-04-27T18:12:48.622Z,8.90
2019-04-27T18:15:18.027Z,8.80
2019-04-27T18:17:51.887Z,8.80
2019-04-27T18:20:28.816Z,8.70
2019-04-27T18:23:16.159Z,8.70
2019-04-27T18:25:49.506Z,8.80
2019-04-27T18:28:19.750Z,8.80
2019-04-27T18:30:59.087Z,8.70
2019-04-27T18:33:28.435Z,8.70
2019-04-27T18:36:05.038Z,8.70
2019-04-27T18:38:30.887Z,8.60
2019-04-27T18:40:58.897Z,8.60
2019-04-27T18:43:28.624Z,8.60
2019-04-27T18:45:58.707Z,8.60
2019-04-27T18:48:29.037Z,8.50
2019-04-27T18:51:11.457Z,8.50
2019-04-27T18:53:40.134Z,8.40
2019-04-27T18:56:10.436Z,8.40
2019-04-27T18:58:39.226Z,8.40
2019-04-27T19:01:08.626Z,8.40
2019-04-27T19:03:39.146Z,8.40
2019-04-27T19:06:08.529Z,8.30
2019-04-27T19:08:38.603Z,8.30
2019-04-27T19:11:09.074Z,8.30
2019-04-27T19:13:38.183Z,8.20
2019-04-27T19:16:08.983Z,8.30
2019-04-27T19:18:37.801Z,8.30
2019-04-27T19:21:08.801Z,8.30
2019-04-27T19:23:38.198Z,8.30
2019-04-27T19:26:09.543Z,8.20
2019-04-27T19:28:48.100Z,8.20
2019-04-27T19:31:29.009Z,8.10
2019-04-27T19:33:57.447Z,8.10
2019-04-27T19:36:27.960Z,8.10
2019-04-27T19:38:58.355Z,8.10
2019-04-27T19:41:28.839Z,8.10
2019-04-27T19:43:57.618Z,8.10
2019-04-27T19:46:26.306Z,8.10
2019-04-27T19:48:54.934Z,8.00
2019-04-27T19:51:23.619Z,8.00
2019-04-27T19:53:52.299Z,8.10
2019-04-27T19:56:21.476Z,8.10
2019-04-27T19:58:51.791Z,8.10
2019-04-27T20:01:28.232Z,8.00
2019-04-27T20:03:59.731Z,8.00
2019-04-27T20:06:29.259Z,7.90
2019-04-27T20:08:59.742Z,7.90
2019-04-27T20:11:28.701Z,7.90
2019-04-27T20:13:57.369Z,7.90
2019-04-27T20:16:26.002Z,7.90
2019-04-27T20:18:54.682Z,8.00
2019-04-27T20:21:23.363Z,7.90
2019-04-27T20:23:52.098Z,7.90
2019-04-27T20:26:20.774Z,7.90
2019-04-27T20:28:51.269Z,8.00
2019-04-27T20:31:19.909Z,8.00
2019-04-27T20:33:48.860Z,7.90
2019-04-27T20:36:17.542Z,8.00
2019-04-27T20:38:46.402Z,7.90
2019-04-27T20:41:15.078Z,8.00
2019-04-27T20:43:43.755Z,8.00
2019-04-27T20:46:12.467Z,8.00
2019-04-27T20:48:41.653Z,7.90
2019-04-27T20:51:11.372Z,7.90
2019-04-27T20:53:42.166Z,8.00
2019-04-27T20:56:10.852Z,7.90
2019-04-27T20:58:41.038Z,7.90
2019-04-27T21:01:10.438Z,7.80
2019-04-27T21:03:46.476Z,7.70
2019-04-27T21:06:26.406Z,7.60
2019-04-27T21:08:55.062Z,7.50
2019-04-27T21:11:23.662Z,7.40
2019-04-27T21:13:53.624Z,7.40
2019-04-27T21:16:22.634Z,7.40
2019-04-27T21:18:53.106Z,7.40
2019-04-27T21:21:22.242Z,7.50
2019-04-27T21:23:51.537Z,7.50
2019-04-27T21:26:21.453Z,7.60
2019-04-27T21:28:51.347Z,7.60
2019-04-27T21:31:21.297Z,7.60
2019-04-27T21:33:50.110Z,7.60
2019-04-27T21:36:18.741Z,7.60
2019-04-27T21:38:47.342Z,7.70
2019-04-27T21:41:15.954Z,7.60
2019-04-27T21:43:44.682Z,7.60
2019-04-27T21:46:13.364Z,7.50
2019-04-27T21:48:42.046Z,7.50
2019-04-27T21:51:11.832Z,7.50
2019-04-27T21:53:48.718Z,7.50
2019-04-27T21:56:17.551Z,7.50
2019-04-27T21:58:46.222Z,7.50
2019-04-27T22:01:21.510Z,7.50
2019-04-27T22:03:50.613Z,7.40
2019-04-27T22:06:21.144Z,7.50
2019-04-27T22:08:51.137Z,7.60
2019-04-27T22:11:21.832Z,7.60
2019-04-27T22:13:51.188Z,7.60
2019-04-27T22:16:21.294Z,7.60
2019-04-27T22:18:51.964Z,7.60
2019-04-27T22:21:21.623Z,7.60
2019-04-27T22:23:52.122Z,7.60
2019-04-27T22:26:21.440Z,7.60
2019-04-27T22:28:52.049Z,7.60
2019-04-27T22:31:21.235Z,7.60
2019-04-27T22:33:52.534Z,7.60
2019-04-27T22:36:21.221Z,7.60
2019-04-27T22:38:51.620Z,7.70
2019-04-27T22:41:34.388Z,7.70
2019-04-27T22:44:04.800Z,7.70
2019-04-27T22:46:35.037Z,7.70
2019-04-27T22:49:03.841Z,7.70
2019-04-27T22:51:32.518Z,7.70
2019-04-27T22:54:01.364Z,7.60
2019-04-27T22:56:32.048Z,7.70
2019-04-27T22:59:05.089Z,7.70
2019-04-27T23:01:45.035Z,7.70
2019-04-27T23:04:15.359Z,7.70
2019-04-27T23:06:44.031Z,7.70
2019-04-27T23:09:13.917Z,7.70
2019-04-27T23:11:42.630Z,7.70
2019-04-27T23:14:11.303Z,7.70
2019-04-27T23:16:42.205Z,7.80
2019-04-27T23:19:10.991Z,7.80
2019-04-27T23:21:39.694Z,7.80
2019-04-27T23:24:08.389Z,7.80
2019-04-27T23:26:36.998Z,7.90
2019-04-27T23:29:13.584Z,7.90
2019-04-27T23:31:38.111Z,7.90
2019-04-27T23:34:07.619Z,7.90
2019-04-27T23:36:36.293Z,7.90
2019-04-27T23:39:07.319Z,7.90
2019-04-27T23:41:36.065Z,7.90
2019-04-27T23:44:04.945Z,7.80
2019-04-27T23:46:34.068Z,7.80
2019-04-27T23:49:02.814Z,7.80
2019-04-27T23:51:49.458Z,7.70
2019-04-27T23:54:18.129Z,7.70
2019-04-27T23:56:47.122Z,7.70
2019-04-27T23:59:24.726Z,7.70
